Time;durP1;ratioP1;P1;durP2;ratioP2;P2;SDS_P1;SDS_P2;PMS_P1;PMS_P2;Temp;Humidity;BMP_temperature;BMP_pressure;BME280_temperature;BME280_humidity;BME280_pressure;Samples;Min_cycle;Max_cycle;Signal;HPM_P1;HPM_P2
2023/03/09 00:00:57;;;;;;;11.90;7.10;;;1.50;99.90;;;;;;4960123;28;87580;-28
2023/03/09 00:03:23;;;;;;;13.82;7.35;;;1.50;99.90;;;;;;4958980;28;90234;-32
2023/03/09 00:05:59;;;;;;;10.55;7.43;;;1.40;99.90;;;;;;4960385;28;89264;-30
2023/03/09 00:08:27;;;;;;;9.55;8.32;;;1.40;99.90;;;;;;4957604;28;89384;-31
2023/03/09 00:10:53;;;;;;;9.93;7.53;;;1.50;99.90;;;;;;4959643;28;88128;-30
2023/03/09 00:13:20;;;;;;;12.23;7.97;;;1.40;99.90;;;;;;4958821;28;87856;-27
2023/03/09 00:15:49;;;;;;;12.68;8.85;;;1.40;99.90;;;;;;4959004;28;90327;-31
2023/03/09 00:18:17;;;;;;;12.48;7.40;;;1.40;99.90;;;;;;4957374;28;89709;-28
2023/03/09 00:20:42;;;;;;;11.75;7.25;;;1.40;99.90;;;;;;4958952;28;89329;-28
2023/03/09 00:23:08;;;;;;;15.15;9.68;;;1.40;99.90;;;;;;4959877;28;89148;-31
2023/03/09 00:25:34;;;;;;;13.15;8.32;;;1.40;99.90;;;;;;4958872;28;89871;-30
2023/03/09 00:28:00;;;;;;;15.10;9.93;;;1.30;99.90;;;;;;4958738;28;88850;-29
2023/03/09 00:30:26;;;;;;;14.77;8.93;;;1.30;99.90;;;;;;4960378;28;87575;-29
2023/03/09 00:32:53;;;;;;;14.85;8.80;;;1.30;99.90;;;;;;4959496;28;89706;-31
2023/03/09 00:35:19;;;;;;;17.35;10.25;;;1.20;99.90;;;;;;4959328;28;90328;-32
2023/03/09 00:37:46;;;;;;;11.30;8.70;;;1.20;99.90;;;;;;4958538;28;90008;-31
2023/03/09 00:40:14;;;;;;;13.15;8.85;;;1.10;99.90;;;;;;4956560;28;89600;-31
2023/03/09 00:42:43;;;;;;;15.23;8.90;;;1.10;99.90;;;;;;4955940;28;88370;-29
2023/03/09 00:45:10;;;;;;;18.73;10.32;;;1.10;99.90;;;;;;4943473;28;90659;-30
2023/03/09 00:47:36;;;;;;;14.10;8.65;;;1.00;99.90;;;;;;4942545;28;90145;-29
2023/03/09 00:50:02;;;;;;;17.90;10.48;;;1.10;99.90;;;;;;4943143;28;88822;-31
2023/03/09 00:52:28;;;;;;;11.02;7.72;;;1.00;99.90;;;;;;4943050;28;88656;-29
2023/03/09 00:54:53;;;;;;;18.00;10.65;;;1.00;99.90;;;;;;4956488;28;90859;-28
2023/03/09 00:57:23;;;;;;;16.50;7.47;;;1.10;99.90;;;;;;4960451;28;89533;-28
2023/03/09 00:59:51;;;;;;;16.50;10.43;;;1.00;99.90;;;;;;4949810;28;87579;-30
2023/03/09 01:02:21;;;;;;;13.88;10.05;;;1.00;99.90;;;;;;4942554;28;88575;-28
2023/03/09 01:04:48;;;;;;;15.05;9.48;;;1.00;99.90;;;;;;4943110;28;91524;-33
2023/03/09 01:07:14;;;;;;;15.40;9.02;;;1.00;99.90;;;;;;4963185;28;90731;-29
2023/03/09 01:09:40;;;;;;;12.93;9.10;;;1.00;99.90;;;;;;4962229;28;88586;-29
2023/03/09 01:12:06;;;;;;;9.98;7.57;;;0.90;99.90;;;;;;4962899;28;88923;-32
2023/03/09 01:14:33;;;;;;;12.68;7.68;;;1.00;99.90;;;;;;4961941;28;89125;-30
2023/03/09 01:16:59;;;;;;;12.55;8.55;;;1.00;99.90;;;;;;4961857;28;89635;-28
2023/03/09 01:19:25;;;;;;;11.35;7.82;;;1.00;99.90;;;;;;4960337;28;88151;-27
2023/03/09 01:21:50;;;;;;;8.38;7.45;;;0.90;99.90;;;;;;4951720;28;88663;-31
2023/03/09 01:24:16;;;;;;;11.52;7.47;;;0.90;99.90;;;;;;4961419;28;90274;-33
2023/03/09 01:26:41;;;;;;;9.57;6.65;;;0.90;99.90;;;;;;4962610;28;89501;-27
2023/03/09 01:29:07;;;;;;;10.77;6.80;;;1.00;99.90;;;;;;4960453;28;90198;-27
2023/03/09 01:31:33;;;;;;;14.30;8.18;;;1.00;99.90;;;;;;4943879;28;88701;-29
2023/03/09 01:33:58;;;;;;;11.70;9.13;;;0.90;99.90;;;;;;4957660;28;90706;-28
2023/03/09 01:36:24;;;;;;;12.25;9.27;;;0.90;99.90;;;;;;4961997;28;89642;-33
2023/03/09 01:38:50;;;;;;;13.30;8.32;;;0.80;99.90;;;;;;4955183;28;90119;-28
2023/03/09 01:41:17;;;;;;;12.52;7.57;;;0.90;99.90;;;;;;4943619;28;88904;-30
2023/03/09 01:43:45;;;;;;;14.65;9.98;;;0.80;99.90;;;;;;4962459;28;90055;-29
2023/03/09 01:46:20;;;;;;;15.27;8.82;;;0.80;99.90;;;;;;4959841;28;89697;-30
2023/03/09 01:49:06;;;;;;;14.50;8.18;;;0.90;99.90;;;;;;4952708;28;88052;-27
2023/03/09 01:51:46;;;;;;;8.85;6.15;;;0.80;99.90;;;;;;4943119;28;88810;-31
2023/03/09 01:54:36;;;;;;;11.00;7.22;;;0.80;99.90;;;;;;4943209;28;89912;-27
2023/03/09 01:57:34;;;;;;;14.48;10.02;;;0.90;99.90;;;;;;4940402;28;89845;-30
2023/03/09 02:00:07;;;;;;;12.65;9.52;;;0.90;99.90;;;;;;4940485;28;88057;-33
2023/03/09 02:02:37;;;;;;;17.13;9.80;;;0.80;99.90;;;;;;4962047;28;89641;-30
2023/03/09 02:05:06;;;;;;;15.93;8.15;;;0.80;99.90;;;;;;4961670;28;90247;-29
2023/03/09 02:07:34;;;;;;;11.25;8.35;;;0.80;99.90;;;;;;4961537;28;89815;-27
2023/03/09 02:10:08;;;;;;;11.88;7.78;;;0.70;99.90;;;;;;4942036;28;90159;-30
2023/03/09 02:12:34;;;;;;;13.40;8.40;;;0.80;99.90;;;;;;4942616;28;87687;-29
2023/03/09 02:15:01;;;;;;;10.70;7.55;;;0.90;99.90;;;;;;4947417;28;90461;-27
2023/03/09 02:17:27;;;;;;;13.85;9.23;;;0.90;99.90;;;;;;4961649;28;89496;-27
2023/03/09 02:20:13;;;;;;;11.48;8.07;;;0.90;99.90;;;;;;4961405;28;89135;-33
2023/03/09 02:22:39;;;;;;;11.40;7.68;;;0.90;99.90;;;;;;4949070;28;89645;-28
2023/03/09 02:25:09;;;;;;;12.27;8.65;;;0.80;99.90;;;;;;4961279;28;91132;-30
2023/03/09 02:27:34;;;;;;;15.27;9.88;;;0.80;99.90;;;;;;4946174;28;89051;-30
2023/03/09 02:30:00;;;;;;;14.73;9.68;;;0.90;99.90;;;;;;4925424;28;87570;-34
2023/03/09 02:32:29;;;;;;;14.05;9.50;;;0.90;99.90;;;;;;4932600;28;89081;-30
2023/03/09 02:34:55;;;;;;;16.23;9.45;;;0.90;99.90;;;;;;4947795;28;90920;-30
2023/03/09 02:37:35;;;;;;;16.27;10.00;;;0.90;99.90;;;;;;4961131;28;89899;-29
2023/03/09 02:40:34;;;;;;;11.27;7.95;;;0.90;99.90;;;;;;4943294;28;89536;-32
2023/03/09 02:43:03;;;;;;;14.35;9.52;;;0.80;99.90;;;;;;4923220;28;88847;-32
2023/03/09 02:45:30;;;;;;;15.25;9.73;;;0.90;99.90;;;;;;4941310;28;89085;-30
2023/03/09 02:47:58;;;;;;;18.10;9.68;;;0.90;99.90;;;;;;4943310;28;89794;-32
2023/03/09 02:50:24;;;;;;;14.38;9.63;;;0.90;99.90;;;;;;4961417;28;88608;-31
2023/03/09 02:52:50;;;;;;;13.30;8.02;;;0.90;99.90;;;;;;4945382;28;89857;-29
2023/03/09 02:55:16;;;;;;;15.55;10.73;;;0.90;99.90;;;;;;4951389;28;90278;-32
2023/03/09 02:57:42;;;;;;;15.48;10.80;;;1.00;99.90;;;;;;4956860;28;90005;-29
2023/03/09 03:00:10;;;;;;;19.42;10.50;;;0.90;99.90;;;;;;4949815;28;88469;-29
2023/03/09 03:02:36;;;;;;;17.07;9.07;;;0.90;99.90;;;;;;4959036;28;89437;-30
2023/03/09 03:05:02;;;;;;;16.50;9.07;;;0.90;99.90;;;;;;4960745;28;90590;-28
2023/03/09 03:07:27;;;;;;;16.33;9.65;;;0.90;99.90;;;;;;4959060;28;90616;-28
2023/03/09 03:09:53;;;;;;;19.27;11.93;;;1.00;99.90;;;;;;4961564;28;89560;-32
2023/03/09 03:12:19;;;;;;;15.93;10.60;;;0.90;99.90;;;;;;4957372;28;88761;-30
2023/03/09 03:14:44;;;;;;;14.57;9.82;;;0.90;99.90;;;;;;4958419;28;89224;-33
2023/03/09 03:17:10;;;;;;;15.98;9.40;;;0.90;99.90;;;;;;4945988;28;90097;-30
2023/03/09 03:19:36;;;;;;;14.32;10.30;;;0.90;99.90;;;;;;4959675;28;89473;-31
2023/03/09 03:22:03;;;;;;;21.17;10.18;;;1.00;99.90;;;;;;4956501;28;87674;-29
2023/03/09 03:24:29;;;;;;;11.75;9.80;;;1.00;99.90;;;;;;4958268;28;91139;-29
2023/03/09 03:26:55;;;;;;;15.68;11.02;;;1.00;99.90;;;;;;4957726;28;89626;-32
2023/03/09 03:29:21;;;;;;;14.43;8.88;;;1.00;99.90;;;;;;4957703;28;88974;-29
2023/03/09 03:31:46;;;;;;;18.63;10.60;;;0.90;99.90;;;;;;4957094;28;87522;-28
2023/03/09 03:34:12;;;;;;;21.25;11.50;;;0.90;99.90;;;;;;4959159;28;90457;-28
2023/03/09 03:36:38;;;;;;;15.35;9.43;;;0.90;99.90;;;;;;4958914;28;89917;-30
2023/03/09 03:39:05;;;;;;;15.90;10.40;;;0.90;99.90;;;;;;4943146;28;89316;-30
2023/03/09 03:41:31;;;;;;;17.63;9.75;;;1.00;99.90;;;;;;4941577;28;87964;-31
2023/03/09 03:43:56;;;;;;;21.48;11.82;;;1.00;99.90;;;;;;4959857;28;90374;-30
2023/03/09 03:46:22;;;;;;;17.70;11.82;;;1.00;99.90;;;;;;4942978;28;89385;-29
2023/03/09 03:48:48;;;;;;;13.95;8.93;;;0.90;99.90;;;;;;4940841;28;87649;-31
2023/03/09 03:51:13;;;;;;;19.55;11.73;;;0.90;99.90;;;;;;4941791;28;89754;-29
2023/03/09 03:53:39;;;;;;;15.95;11.35;;;0.90;99.90;;;;;;4941245;28;88971;-28
2023/03/09 03:56:05;;;;;;;16.52;9.43;;;0.90;99.90;;;;;;4939918;28;89657;-28
2023/03/09 03:58:31;;;;;;;15.95;9.55;;;1.00;99.90;;;;;;4950769;28;87645;-29
2023/03/09 04:00:57;;;;;;;17.58;10.45;;;0.90;99.90;;;;;;4941709;28;89763;-27
2023/03/09 04:03:23;;;;;;;16.77;9.75;;;0.90;99.90;;;;;;4958818;28;90383;-29
2023/03/09 04:05:49;;;;;;;13.57;8.82;;;1.00;99.90;;;;;;4959483;28;89340;-29
2023/03/09 04:08:14;;;;;;;17.20;10.95;;;0.90;99.90;;;;;;4952328;28;89028;-27
2023/03/09 04:10:40;;;;;;;14.00;8.98;;;0.90;99.90;;;;;;4953449;28;88719;-29
2023/03/09 04:13:06;;;;;;;19.48;9.82;;;1.00;99.90;;;;;;4943365;28;90067;-29
2023/03/09 04:15:33;;;;;;;12.70;7.85;;;0.90;99.90;;;;;;4944239;28;89794;-32
2023/03/09 04:17:59;;;;;;;16.63;11.20;;;1.00;99.90;;;;;;4944962;28;87762;-28
2023/03/09 04:20:26;;;;;;;18.13;10.80;;;1.00;99.90;;;;;;4943624;28;88370;-28
2023/03/09 04:22:51;;;;;;;15.50;10.20;;;1.00;99.90;;;;;;4944288;28;89986;-29
2023/03/09 04:25:17;;;;;;;14.50;8.68;;;1.00;99.90;;;;;;4927039;28;89477;-28
2023/03/09 04:27:43;;;;;;;21.38;12.43;;;1.00;99.90;;;;;;4944499;28;90111;-27
2023/03/09 04:30:10;;;;;;;23.20;10.20;;;1.00;99.90;;;;;;4945497;28;89331;-30
2023/03/09 04:32:36;;;;;;;15.32;10.50;;;1.00;99.90;;;;;;4944072;28;89827;-31
2023/03/09 04:35:01;;;;;;;16.75;10.30;;;1.00;99.90;;;;;;4944977;28;89831;-29
2023/03/09 04:37:27;;;;;;;15.00;9.82;;;0.90;99.90;;;;;;4962857;28;88958;-30
2023/03/09 04:39:53;;;;;;;16.63;11.40;;;0.90;99.90;;;;;;4959709;28;87688;-31
2023/03/09 04:42:18;;;;;;;20.23;10.82;;;0.90;99.90;;;;;;4942765;28;90116;-29
2023/03/09 04:44:44;;;;;;;16.20;10.85;;;0.80;99.90;;;;;;4942496;28;90875;-30
2023/03/09 04:47:12;;;;;;;18.67;11.95;;;0.80;99.90;;;;;;4942317;28;88693;-30
2023/03/09 04:49:38;;;;;;;17.73;10.50;;;0.90;99.90;;;;;;4959214;28;87710;-31
2023/03/09 04:52:04;;;;;;;18.90;12.35;;;0.90;99.90;;;;;;4961591;28;90286;-30
2023/03/09 04:54:29;;;;;;;19.48;12.70;;;0.80;99.90;;;;;;4961495;28;89607;-29
2023/03/09 04:56:55;;;;;;;20.17;12.10;;;0.90;99.90;;;;;;4961996;28;88446;-28
2023/03/09 04:59:21;;;;;;;25.55;13.60;;;0.80;99.90;;;;;;4961873;28;89394;-28
2023/03/09 05:01:47;;;;;;;22.20;14.50;;;0.80;99.90;;;;;;4961823;28;89925;-29
2023/03/09 05:04:12;;;;;;;21.30;13.88;;;0.80;99.90;;;;;;4945363;28;89155;-27
2023/03/09 05:06:38;;;;;;;25.13;13.90;;;0.90;99.90;;;;;;4950838;28;89485;-33
2023/03/09 05:09:04;;;;;;;23.35;13.90;;;0.80;99.90;;;;;;4959384;28;88108;-28
2023/03/09 05:11:31;;;;;;;22.55;12.95;;;0.70;99.90;;;;;;4942499;28;90839;-29
2023/03/09 05:13:57;;;;;;;21.58;14.10;;;0.70;99.90;;;;;;4954973;28;89569;-30
2023/03/09 05:16:23;;;;;;;21.95;13.75;;;0.70;99.90;;;;;;4942095;28;90068;-26
2023/03/09 05:18:50;;;;;;;18.17;14.23;;;0.60;99.90;;;;;;4942268;28;89284;-31
2023/03/09 05:21:16;;;;;;;22.92;12.95;;;0.60;99.90;;;;;;4942018;28;90316;-28
2023/03/09 05:23:42;;;;;;;22.98;14.05;;;0.70;99.90;;;;;;4941149;28;92476;-31
2023/03/09 05:26:07;;;;;;;21.92;13.65;;;0.60;99.90;;;;;;4941388;28;89133;-30
2023/03/09 05:28:38;;;;;;;18.27;11.90;;;0.70;99.90;;;;;;4942269;28;88186;-29
2023/03/09 05:31:09;;;;;;;20.42;13.00;;;0.70;99.90;;;;;;4942058;28;89870;-27
2023/03/09 05:33:35;;;;;;;25.17;14.40;;;0.70;99.90;;;;;;4941945;28;90603;-29
2023/03/09 05:36:00;;;;;;;19.75;14.10;;;0.60;99.90;;;;;;4951224;28;91330;-34
2023/03/09 05:38:26;;;;;;;22.27;13.80;;;0.70;99.90;;;;;;4959771;28;89610;-28
2023/03/09 05:40:52;;;;;;;25.63;16.08;;;0.70;99.90;;;;;;4960190;28;90428;-27
2023/03/09 05:43:17;;;;;;;20.52;12.20;;;0.70;99.90;;;;;;4943183;28;90881;-29
2023/03/09 05:45:43;;;;;;;21.98;13.90;;;0.70;99.90;;;;;;4942236;28;89672;-29
2023/03/09 05:48:09;;;;;;;22.08;13.05;;;0.70;99.90;;;;;;4945001;28;88493;-31
2023/03/09 05:50:36;;;;;;;19.55;13.38;;;0.70;99.90;;;;;;4950519;28;90426;-29
2023/03/09 05:53:02;;;;;;;24.77;13.98;;;0.70;99.90;;;;;;4942408;28;90109;-27
2023/03/09 05:55:27;;;;;;;22.98;13.52;;;0.70;99.90;;;;;;4942069;28;89684;-26
2023/03/09 05:57:53;;;;;;;26.83;15.48;;;0.60;99.90;;;;;;4941693;28;88958;-30
2023/03/09 06:00:19;;;;;;;24.60;14.90;;;0.60;99.90;;;;;;4940825;28;90439;-31
2023/03/09 06:02:45;;;;;;;20.20;14.35;;;0.70;99.90;;;;;;4942207;28;90096;-30
2023/03/09 06:05:10;;;;;;;23.85;12.73;;;0.70;99.90;;;;;;4942409;28;91589;-28
2023/03/09 06:07:36;;;;;;;23.73;14.63;;;0.70;99.90;;;;;;4956631;28;88766;-29
2023/03/09 06:10:02;;;;;;;23.58;14.20;;;0.70;99.90;;;;;;4958840;28;90292;-30
2023/03/09 06:12:27;;;;;;;24.73;14.48;;;0.80;99.90;;;;;;4957098;28;90513;-29
2023/03/09 06:14:53;;;;;;;22.77;14.98;;;0.80;99.90;;;;;;4959538;28;89728;-29
2023/03/09 06:17:19;;;;;;;22.00;13.40;;;0.80;99.90;;;;;;4958232;28;88011;-29
2023/03/09 06:19:45;;;;;;;28.80;14.93;;;0.70;99.90;;;;;;4959851;28;90383;-33
2023/03/09 06:22:10;;;;;;;22.30;13.57;;;0.70;99.90;;;;;;4957136;28;90020;-27
2023/03/09 06:24:36;;;;;;;20.88;12.82;;;0.80;99.90;;;;;;4940400;28;88267;-27
2023/03/09 06:27:03;;;;;;;24.30;15.05;;;0.70;99.90;;;;;;4940471;28;89589;-30
2023/03/09 06:29:29;;;;;;;28.20;14.95;;;0.80;99.90;;;;;;4940819;28;89368;-31
2023/03/09 06:31:54;;;;;;;23.25;14.18;;;0.80;99.90;;;;;;4940884;28;89172;-29
2023/03/09 06:34:20;;;;;;;26.48;14.15;;;0.70;99.90;;;;;;4940640;28;89660;-29
2023/03/09 06:36:46;;;;;;;20.30;13.50;;;0.80;99.90;;;;;;4943389;28;90031;-30
2023/03/09 06:39:12;;;;;;;24.45;14.45;;;0.80;99.90;;;;;;4949621;28;90457;-29
2023/03/09 06:41:37;;;;;;;25.27;14.30;;;0.80;99.90;;;;;;4940348;28;91500;-28
2023/03/09 06:44:03;;;;;;;23.38;14.60;;;0.90;99.90;;;;;;4940307;28;88896;-29
2023/03/09 06:46:29;;;;;;;21.05;13.48;;;0.80;99.90;;;;;;4939776;28;89307;-29
2023/03/09 06:48:55;;;;;;;23.77;13.23;;;0.80;99.90;;;;;;4939650;28;90013;-28
2023/03/09 06:51:21;;;;;;;18.63;13.82;;;0.90;99.90;;;;;;4939890;28;89698;-29
2023/03/09 06:53:48;;;;;;;23.95;15.90;;;0.90;99.90;;;;;;4940584;28;89860;-29
2023/03/09 06:56:14;;;;;;;26.27;15.75;;;0.90;99.90;;;;;;4952325;28;89464;-29
2023/03/09 06:58:40;;;;;;;25.63;15.38;;;0.90;99.90;;;;;;4941039;28;89310;-28
2023/03/09 07:01:08;;;;;;;22.00;13.35;;;0.90;99.90;;;;;;4941200;28;91929;-28
2023/03/09 07:03:34;;;;;;;21.60;13.40;;;0.90;99.90;;;;;;4939983;28;89258;-28
2023/03/09 07:05:59;;;;;;;24.27;12.10;;;1.00;99.90;;;;;;4942997;28;88265;-28
2023/03/09 07:08:25;;;;;;;24.92;16.02;;;1.00;99.90;;;;;;4959549;28;90899;-29
2023/03/09 07:10:51;;;;;;;32.80;14.73;;;1.00;99.90;;;;;;4943716;28;89980;-29
2023/03/09 07:13:17;;;;;;;20.92;12.77;;;1.00;99.90;;;;;;4940204;28;91379;-28
2023/03/09 07:15:42;;;;;;;20.88;13.88;;;1.00;99.90;;;;;;4952953;28;87658;-28
2023/03/09 07:18:09;;;;;;;22.27;14.02;;;1.10;99.90;;;;;;4940972;28;90147;-28
2023/03/09 07:20:37;;;;;;;21.27;12.98;;;1.10;99.90;;;;;;4941892;28;89779;-27
2023/03/09 07:23:03;;;;;;;26.27;13.57;;;1.10;99.90;;;;;;4940214;28;89837;-31
2023/03/09 07:25:29;;;;;;;18.17;12.70;;;1.20;99.90;;;;;;4941376;28;88147;-30
2023/03/09 07:27:55;;;;;;;23.50;14.57;;;1.10;99.90;;;;;;4940826;28;89802;-29
2023/03/09 07:30:20;;;;;;;25.05;14.68;;;1.10;99.90;;;;;;4941707;28;89667;-33
2023/03/09 07:32:46;;;;;;;21.65;13.90;;;1.10;99.90;;;;;;4941479;28;89716;-28
2023/03/09 07:35:12;;;;;;;20.10;11.50;;;1.20;99.90;;;;;;4942347;28;89284;-29
2023/03/09 07:37:37;;;;;;;24.50;15.98;;;1.20;99.90;;;;;;4941513;28;89992;-28
2023/03/09 07:40:03;;;;;;;21.38;12.68;;;1.10;99.90;;;;;;4943215;28;89410;-27
2023/03/09 07:42:29;;;;;;;23.27;13.40;;;1.10;99.90;;;;;;4941256;28;89789;-30
2023/03/09 07:44:54;;;;;;;23.75;13.63;;;1.20;99.90;;;;;;4946933;28;89172;-29
2023/03/09 07:47:20;;;;;;;20.65;14.68;;;1.20;99.90;;;;;;4947476;28;89919;-28
2023/03/09 07:49:46;;;;;;;23.48;15.82;;;1.20;99.90;;;;;;4943555;28;90638;-29
2023/03/09 07:52:12;;;;;;;21.55;13.85;;;1.20;99.90;;;;;;4940702;28;90754;-29
2023/03/09 07:54:38;;;;;;;24.65;14.75;;;1.20;99.90;;;;;;4944152;28;88199;-29
2023/03/09 07:57:04;;;;;;;25.98;16.58;;;1.30;99.90;;;;;;4941652;28;89746;-30
2023/03/09 07:59:30;;;;;;;21.08;14.98;;;1.30;99.90;;;;;;4953551;28;90057;-27
2023/03/09 08:01:55;;;;;;;26.65;16.13;;;1.30;99.90;;;;;;4941726;28;90020;-31
2023/03/09 08:04:21;;;;;;;24.73;15.48;;;1.40;99.90;;;;;;4942606;28;87518;-31
2023/03/09 08:06:46;;;;;;;21.08;14.50;;;1.40;99.90;;;;;;4950791;28;90235;-29
2023/03/09 08:09:14;;;;;;;23.83;14.40;;;1.50;99.90;;;;;;4954795;28;90340;-30
2023/03/09 08:11:42;;;;;;;29.70;16.42;;;1.50;99.90;;;;;;4938803;28;88736;-28
2023/03/09 08:14:08;;;;;;;18.38;13.82;;;1.60;99.90;;;;;;4937906;28;89211;-30
2023/03/09 08:16:34;;;;;;;21.67;15.25;;;1.70;99.90;;;;;;4939243;28;90230;-28
2023/03/09 08:18:59;;;;;;;26.17;15.57;;;1.60;99.90;;;;;;4921219;28;89801;-28
2023/03/09 08:21:25;;;;;;;26.30;17.52;;;1.70;99.90;;;;;;4939220;28;90639;-31
2023/03/09 08:23:50;;;;;;;25.27;14.25;;;1.70;99.90;;;;;;4939161;28;88006;-30
2023/03/09 08:26:17;;;;;;;27.02;15.02;;;1.70;99.90;;;;;;4938639;28;90321;-32
2023/03/09 08:28:43;;;;;;;31.88;19.75;;;1.70;99.90;;;;;;4940053;28;90040;-28
2023/03/09 08:31:10;;;;;;;29.10;17.85;;;1.80;99.90;;;;;;4939217;28;89271;-30
2023/03/09 08:33:36;;;;;;;27.77;16.65;;;1.90;99.90;;;;;;4940017;28;88482;-29
2023/03/09 08:36:17;;;;;;;22.73;16.17;;;1.90;99.90;;;;;;4939341;28;90458;-30
2023/03/09 08:38:44;;;;;;;24.15;15.18;;;1.90;99.90;;;;;;4933589;28;92684;-29
2023/03/09 08:41:10;;;;;;;26.50;17.63;;;1.90;99.90;;;;;;4951545;28;90446;-27
2023/03/09 08:43:35;;;;;;;23.55;15.75;;;1.90;99.90;;;;;;4938929;28;88577;-31
2023/03/09 08:46:02;;;;;;;21.67;14.23;;;1.80;99.90;;;;;;4938303;28;90134;-30
2023/03/09 08:48:27;;;;;;;23.50;13.85;;;1.90;99.90;;;;;;4938388;28;89842;-30
2023/03/09 08:50:53;;;;;;;27.48;14.43;;;2.00;99.90;;;;;;4939143;28;89583;-28
2023/03/09 08:53:19;;;;;;;23.30;14.05;;;2.00;99.90;;;;;;4938610;28;90131;-27
2023/03/09 08:55:45;;;;;;;23.10;16.17;;;2.00;99.90;;;;;;4938680;28;89700;-32
2023/03/09 08:58:11;;;;;;;21.27;14.73;;;2.00;99.90;;;;;;4938100;28;89713;-28
2023/03/09 09:00:37;;;;;;;27.98;17.65;;;2.00;99.90;;;;;;4940319;28;89605;-31
2023/03/09 09:03:03;;;;;;;24.00;16.38;;;2.10;99.90;;;;;;4941270;28;90003;-28
2023/03/09 09:05:29;;;;;;;24.25;16.30;;;2.10;99.90;;;;;;4941793;28;89770;-29
2023/03/09 09:07:55;;;;;;;29.35;16.85;;;2.10;99.90;;;;;;4959767;28;90012;-29
2023/03/09 09:10:20;;;;;;;19.98;14.70;;;2.10;99.90;;;;;;4949177;28;89703;-29
2023/03/09 09:12:46;;;;;;;24.20;14.75;;;2.10;99.90;;;;;;4941954;28;87527;-30
2023/03/09 09:15:13;;;;;;;28.58;15.88;;;2.20;99.90;;;;;;4941414;28;91039;-30
2023/03/09 09:17:40;;;;;;;27.20;17.53;;;2.20;99.90;;;;;;4942044;28;88330;-27
2023/03/09 09:20:07;;;;;;;21.70;15.00;;;2.20;99.90;;;;;;4941756;28;89870;-31
2023/03/09 09:22:33;;;;;;;20.45;15.02;;;2.20;99.90;;;;;;4942308;28;90486;-29
2023/03/09 09:24:59;;;;;;;27.27;17.70;;;2.30;99.90;;;;;;4942139;28;90236;-26
2023/03/09 09:27:25;;;;;;;25.95;14.70;;;2.30;99.90;;;;;;4943831;28;92099;-28
2023/03/09 09:29:52;;;;;;;24.70;13.93;;;2.30;99.90;;;;;;4945706;28;90427;-32
2023/03/09 09:32:18;;;;;;;21.20;14.48;;;2.30;99.90;;;;;;4940966;28;88956;-28
2023/03/09 09:34:44;;;;;;;32.92;18.25;;;2.30;99.90;;;;;;4952657;28;90306;-28
2023/03/09 09:37:11;;;;;;;24.25;14.70;;;2.40;99.90;;;;;;4946509;28;90493;-28
2023/03/09 09:39:37;;;;;;;20.85;14.70;;;2.30;99.90;;;;;;4959202;28;89518;-28
2023/03/09 09:42:10;;;;;;;22.40;14.45;;;2.40;99.90;;;;;;4932846;28;89369;-30
2023/03/09 09:44:45;;;;;;;23.27;13.52;;;2.40;99.90;;;;;;4943548;28;90322;-29
2023/03/09 09:47:16;;;;;;;22.98;14.20;;;2.40;99.90;;;;;;4950081;28;89693;-29
2023/03/09 09:49:47;;;;;;;19.65;14.50;;;2.50;99.90;;;;;;4951176;28;89950;-29
2023/03/09 09:52:27;;;;;;;18.90;12.93;;;2.50;99.90;;;;;;4941720;28;89477;-29
2023/03/09 09:55:08;;;;;;;21.83;14.43;;;2.40;99.90;;;;;;4951948;28;91947;-29
2023/03/09 09:57:43;;;;;;;21.02;14.25;;;2.50;99.90;;;;;;4955496;28;90277;-30
2023/03/09 10:00:36;;;;;;;22.60;13.88;;;2.60;99.90;;;;;;4949957;28;90000;-30
2023/03/09 10:03:23;;;;;;;27.17;14.35;;;2.70;99.90;;;;;;4942326;28;89084;-28
2023/03/09 10:06:20;;;;;;;22.35;13.95;;;2.70;99.90;;;;;;4943952;28;90266;-30
2023/03/09 10:08:56;;;;;;;19.77;13.38;;;2.80;99.90;;;;;;4946472;28;89577;-28
2023/03/09 10:11:26;;;;;;;26.55;15.32;;;2.70;99.90;;;;;;4937457;28;89604;-31
2023/03/09 10:14:09;;;;;;;23.85;14.82;;;2.80;99.90;;;;;;4934902;28;88509;-29
2023/03/09 10:17:12;;;;;;;26.75;16.50;;;2.80;99.90;;;;;;4947838;28;90276;-28
2023/03/09 10:19:40;;;;;;;17.48;12.63;;;2.80;99.90;;;;;;4905164;28;90392;-28
2023/03/09 10:22:12;;;;;;;21.17;12.07;;;2.70;99.90;;;;;;4956545;28;90721;-28
2023/03/09 10:24:46;;;;;;;25.05;15.45;;;2.80;99.90;;;;;;4957227;28;87991;-32
2023/03/09 10:27:11;;;;;;;20.30;13.90;;;2.80;99.90;;;;;;4956383;28;90121;-29
2023/03/09 10:29:43;;;;;;;21.73;12.38;;;2.80;99.90;;;;;;4957407;28;90066;-28
2023/03/09 10:32:39;;;;;;;21.55;14.20;;;2.80;99.90;;;;;;4956658;28;89752;-31
2023/03/09 10:35:19;;;;;;;20.02;14.48;;;2.80;99.90;;;;;;4945665;28;89325;-30
2023/03/09 10:37:48;;;;;;;25.77;13.82;;;2.70;99.90;;;;;;4955924;28;89569;-30
2023/03/09 10:40:23;;;;;;;24.55;13.55;;;2.70;99.90;;;;;;4951283;28;90062;-29
2023/03/09 10:42:49;;;;;;;24.75;15.48;;;2.80;99.90;;;;;;4938268;28;90636;-31
2023/03/09 10:45:31;;;;;;;16.90;11.65;;;2.90;99.90;;;;;;4938610;28;90376;-29
2023/03/09 10:48:07;;;;;;;21.73;14.75;;;2.90;99.90;;;;;;4938188;28;89522;-32
2023/03/09 10:50:40;;;;;;;21.77;13.18;;;2.90;99.90;;;;;;4949097;28;90404;-30
2023/03/09 10:53:37;;;;;;;22.92;14.60;;;2.90;99.90;;;;;;4941332;28;89117;-32
2023/03/09 10:56:22;;;;;;;21.00;13.63;;;2.90;99.90;;;;;;4923247;28;89127;-29
2023/03/09 10:59:06;;;;;;;21.00;13.85;;;2.90;99.90;;;;;;4939930;28;90919;-28
2023/03/09 11:01:41;;;;;;;22.30;13.27;;;3.00;99.90;;;;;;4942854;28;89656;-29
2023/03/09 11:04:22;;;;;;;18.10;14.85;;;3.00;99.90;;;;;;4950589;28;89034;-31
2023/03/09 11:07:04;;;;;;;19.70;11.98;;;3.00;99.90;;;;;;4953011;28;89224;-30
2023/03/09 11:09:31;;;;;;;16.17;11.82;;;3.00;99.90;;;;;;4943975;28;90348;-29
2023/03/09 11:12:21;;;;;;;24.33;15.82;;;3.00;99.90;;;;;;4957053;28;90914;-31
2023/03/09 11:14:56;;;;;;;20.45;12.18;;;3.00;99.90;;;;;;4946452;28;90434;-30
2023/03/09 11:17:31;;;;;;;19.48;13.43;;;3.00;99.90;;;;;;4956486;28;89035;-31
2023/03/09 11:20:22;;;;;;;21.58;13.95;;;3.10;99.90;;;;;;4945714;28;89807;-28
2023/03/09 11:22:57;;;;;;;18.40;12.82;;;3.20;99.90;;;;;;4937177;28;90014;-29
2023/03/09 11:25:50;;;;;;;23.30;13.38;;;3.10;99.90;;;;;;4947825;28;89281;-29
2023/03/09 11:28:28;;;;;;;21.45;13.55;;;3.20;99.90;;;;;;4948350;28;87681;-29
2023/03/09 11:30:56;;;;;;;21.58;12.70;;;3.30;99.90;;;;;;4954026;28;89869;-28
2023/03/09 11:33:24;;;;;;;19.30;11.90;;;3.20;99.90;;;;;;4952969;28;89614;-31
2023/03/09 11:35:53;;;;;;;21.13;12.90;;;3.20;99.90;;;;;;4954418;28;89911;-29
2023/03/09 11:38:20;;;;;;;24.58;13.57;;;3.20;99.90;;;;;;4955359;28;89629;-28
2023/03/09 11:40:49;;;;;;;20.98;11.93;;;3.20;99.90;;;;;;4950228;28;89171;-31
2023/03/09 11:43:36;;;;;;;21.95;14.55;;;3.20;99.90;;;;;;4950865;28;88954;-29
2023/03/09 11:46:33;;;;;;;18.25;12.63;;;3.20;99.90;;;;;;4941663;28;90463;-28
2023/03/09 11:49:10;;;;;;;22.23;14.23;;;3.30;99.90;;;;;;4927517;28;87737;-31
2023/03/09 11:51:47;;;;;;;21.58;13.88;;;3.30;99.90;;;;;;4918844;28;90333;-31
2023/03/09 11:54:37;;;;;;;21.15;14.63;;;3.20;99.90;;;;;;4917739;28;90336;-31
2023/03/09 11:57:08;;;;;;;19.50;12.55;;;3.20;99.90;;;;;;4920474;28;89842;-29
2023/03/09 11:59:54;;;;;;;21.08;13.75;;;3.20;99.90;;;;;;4921362;28;89222;-29
2023/03/09 12:02:34;;;;;;;25.80;12.80;;;3.30;99.90;;;;;;4920245;28;90583;-29
2023/03/09 12:05:01;;;;;;;22.95;14.52;;;3.30;99.90;;;;;;4923680;28;90054;-34
2023/03/09 12:08:07;;;;;;;25.63;15.57;;;3.40;99.90;;;;;;4917356;28;90969;-29
2023/03/09 12:10:51;;;;;;;20.77;15.07;;;3.40;99.90;;;;;;4917807;28;90006;-32
2023/03/09 12:13:27;;;;;;;17.60;10.88;;;3.50;99.90;;;;;;4924169;28;91675;-30
2023/03/09 12:16:05;;;;;;;22.48;14.77;;;3.50;99.90;;;;;;4936437;28;89728;-28
2023/03/09 12:18:40;;;;;;;21.35;12.48;;;3.50;99.90;;;;;;4936522;28;89769;-30
2023/03/09 12:21:09;;;;;;;20.80;13.95;;;3.50;99.90;;;;;;4937034;28;87614;-31
2023/03/09 12:23:34;;;;;;;19.92;14.07;;;3.50;99.90;;;;;;4937074;28;90298;-28
2023/03/09 12:26:15;;;;;;;26.40;16.42;;;3.50;99.90;;;;;;4936547;28;89728;-28
2023/03/09 12:28:41;;;;;;;23.13;14.93;;;3.40;99.90;;;;;;4936486;28;90708;-31
2023/03/09 12:31:29;;;;;;;25.27;15.40;;;3.50;99.90;;;;;;4936622;28;89639;-30
2023/03/09 12:33:58;;;;;;;15.85;11.50;;;3.40;99.90;;;;;;4923072;28;90918;-29
2023/03/09 12:36:23;;;;;;;;;;;3.50;99.90;;;;;;4921648;28;91011;-30
2023/03/09 12:39:31;;;;;;;20.30;12.65;;;3.40;99.90;;;;;;4922477;28;89589;-30
2023/03/09 12:41:59;;;;;;;26.97;13.33;;;3.50;99.90;;;;;;4903703;28;88735;-31
2023/03/09 12:44:43;;;;;;;17.63;12.77;;;3.60;99.90;;;;;;4920795;28;90756;-30
2023/03/09 12:47:39;;;;;;;16.40;12.15;;;3.50;99.90;;;;;;4920339;28;88491;-29
2023/03/09 12:50:25;;;;;;;25.80;16.63;;;3.50;99.90;;;;;;4920688;28;89487;-32
2023/03/09 12:53:05;;;;;;;20.90;14.07;;;3.50;99.90;;;;;;4920924;28;88770;-30